sensor_id;sensor_type;location;lat;lon;timestamp;P1;durP1;ratioP1;P2;durP2;ratioP2
2211;SDS011;48849;48.758;9.158;2023-11-22T00:01:06;9.65;;;8.27;;
2211;SDS011;48849;48.758;9.158;2023-11-22T00:03:36;11.65;;;8.57;;
2211;SDS011;48849;48.758;9.158;2023-11-22T00:06:03;11.98;;;8.35;;
2211;SDS011;48849;48.758;9.158;2023-11-22T00:08:31;10.70;;;9.10;;
2211;SDS011;48849;48.758;9.158;2023-11-22T00:10:58;10.48;;;9.10;;
2211;SDS011;48849;48.758;9.158;2023-11-22T00:13:25;10.93;;;7.82;;
2211;SDS011;48849;48.758;9.158;2023-11-22T00:15:52;6.28;;;5.03;;
2211;SDS011;48849;48.758;9.158;2023-11-22T00:18:18;4.35;;;3.95;;
2211;SDS011;48849;48.758;9.158;2023-11-22T00:20:45;4.22;;;3.85;;
2211;SDS011;48849;48.758;9.158;2023-11-22T00:23:13;3.97;;;3.67;;
2211;SDS011;48849;48.758;9.158;2023-11-22T00:25:42;3.55;;;3.15;;
2211;SDS011;48849;48.758;9.158;2023-11-22T00:28:08;3.90;;;3.50;;
2211;SDS011;48849;48.758;9.158;2023-11-22T00:30:36;4.05;;;3.75;;
2211;SDS011;48849;48.758;9.158;2023-11-22T00:33:03;4.22;;;3.83;;
2211;SDS011;48849;48.758;9.158;2023-11-22T00:35:30;3.70;;;3.25;;
2211;SDS011;48849;48.758;9.158;2023-11-22T00:37:57;3.90;;;3.50;;
2211;SDS011;48849;48.758;9.158;2023-11-22T00:40:24;4.22;;;3.92;;
2211;SDS011;48849;48.758;9.158;2023-11-22T00:42:52;3.92;;;3.63;;
2211;SDS011;48849;48.758;9.158;2023-11-22T00:45:19;4.05;;;3.65;;
2211;SDS011;48849;48.758;9.158;2023-11-22T00:47:46;3.70;;;3.40;;
2211;SDS011;48849;48.758;9.158;2023-11-22T00:50:13;3.90;;;3.50;;
2211;SDS011;48849;48.758;9.158;2023-11-22T00:52:44;4.35;;;3.90;;
2211;SDS011;48849;48.758;9.158;2023-11-22T00:55:11;4.90;;;4.50;;
2211;SDS011;48849;48.758;9.158;2023-11-22T00:57:38;5.03;;;4.63;;
2211;SDS011;48849;48.758;9.158;2023-11-22T01:00:07;4.07;;;3.67;;
2211;SDS011;48849;48.758;9.158;2023-11-22T01:02:36;4.75;;;4.35;;
2211;SDS011;48849;48.758;9.158;2023-11-22T01:05:04;5.05;;;4.63;;
2211;SDS011;48849;48.758;9.158;2023-11-22T01:07:32;4.90;;;4.50;;
2211;SDS011;48849;48.758;9.158;2023-11-22T01:09:59;4.90;;;4.50;;
2211;SDS011;48849;48.758;9.158;2023-11-22T01:12:25;5.40;;;4.90;;
2211;SDS011;48849;48.758;9.158;2023-11-22T01:14:52;5.50;;;5.00;;
2211;SDS011;48849;48.758;9.158;2023-11-22T01:17:20;5.10;;;4.60;;
2211;SDS011;48849;48.758;9.158;2023-11-22T01:19:48;6.10;;;5.50;;
2211;SDS011;48849;48.758;9.158;2023-11-22T01:22:15;5.03;;;4.60;;
2211;SDS011;48849;48.758;9.158;2023-11-22T01:24:42;5.60;;;5.10;;
2211;SDS011;48849;48.758;9.158;2023-11-22T01:27:09;5.68;;;5.15;;
2211;SDS011;48849;48.758;9.158;2023-11-22T01:29:36;6.05;;;4.82;;
2211;SDS011;48849;48.758;9.158;2023-11-22T01:32:03;5.50;;;5.00;;
2211;SDS011;48849;48.758;9.158;2023-11-22T01:34:31;5.32;;;4.88;;
2211;SDS011;48849;48.758;9.158;2023-11-22T01:36:58;5.15;;;4.65;;
2211;SDS011;48849;48.758;9.158;2023-11-22T01:39:25;4.75;;;4.30;;
2211;SDS011;48849;48.758;9.158;2023-11-22T01:41:52;5.00;;;4.55;;
2211;SDS011;48849;48.758;9.158;2023-11-22T01:44:19;5.60;;;4.68;;
2211;SDS011;48849;48.758;9.158;2023-11-22T01:46:46;4.63;;;4.22;;
2211;SDS011;48849;48.758;9.158;2023-11-22T01:49:13;4.78;;;4.30;;
2211;SDS011;48849;48.758;9.158;2023-11-22T01:51:41;5.45;;;4.95;;
2211;SDS011;48849;48.758;9.158;2023-11-22T01:54:08;5.38;;;4.88;;
2211;SDS011;48849;48.758;9.158;2023-11-22T01:56:36;4.85;;;4.45;;
2211;SDS011;48849;48.758;9.158;2023-11-22T01:59:04;5.80;;;5.30;;
2211;SDS011;48849;48.758;9.158;2023-11-22T02:01:31;5.53;;;5.03;;
2211;SDS011;48849;48.758;9.158;2023-11-22T02:03:58;5.05;;;4.55;;
2211;SDS011;48849;48.758;9.158;2023-11-22T02:06:26;5.65;;;5.15;;
2211;SDS011;48849;48.758;9.158;2023-11-22T02:08:54;4.60;;;4.20;;
2211;SDS011;48849;48.758;9.158;2023-11-22T02:11:20;5.15;;;4.65;;
2211;SDS011;48849;48.758;9.158;2023-11-22T02:13:49;5.03;;;4.63;;
2211;SDS011;48849;48.758;9.158;2023-11-22T02:16:16;7.80;;;4.35;;
2211;SDS011;48849;48.758;9.158;2023-11-22T02:18:44;4.75;;;4.35;;
2211;SDS011;48849;48.758;9.158;2023-11-22T02:21:11;4.82;;;4.43;;
2211;SDS011;48849;48.758;9.158;2023-11-22T02:23:39;4.70;;;3.90;;
2211;SDS011;48849;48.758;9.158;2023-11-22T02:26:07;4.80;;;4.40;;
2211;SDS011;48849;48.758;9.158;2023-11-22T02:28:34;4.30;;;3.90;;
2211;SDS011;48849;48.758;9.158;2023-11-22T02:31:00;4.80;;;4.30;;
2211;SDS011;48849;48.758;9.158;2023-11-22T02:33:28;4.75;;;3.92;;
2211;SDS011;48849;48.758;9.158;2023-11-22T02:35:55;4.82;;;4.43;;
2211;SDS011;48849;48.758;9.158;2023-11-22T02:38:22;4.57;;;4.18;;
2211;SDS011;48849;48.758;9.158;2023-11-22T02:40:51;4.93;;;4.43;;
2211;SDS011;48849;48.758;9.158;2023-11-22T02:43:18;4.07;;;3.67;;
2211;SDS011;48849;48.758;9.158;2023-11-22T02:45:45;4.70;;;3.80;;
2211;SDS011;48849;48.758;9.158;2023-11-22T02:48:12;4.53;;;4.22;;
2211;SDS011;48849;48.758;9.158;2023-11-22T02:50:39;4.50;;;4.10;;
2211;SDS011;48849;48.758;9.158;2023-11-22T02:53:08;4.53;;;4.13;;
2211;SDS011;48849;48.758;9.158;2023-11-22T02:55:35;4.50;;;4.10;;
2211;SDS011;48849;48.758;9.158;2023-11-22T02:58:03;4.75;;;4.35;;
2211;SDS011;48849;48.758;9.158;2023-11-22T03:00:31;5.13;;;4.63;;
2211;SDS011;48849;48.758;9.158;2023-11-22T03:02:59;4.55;;;4.15;;
2211;SDS011;48849;48.758;9.158;2023-11-22T03:05:28;6.85;;;4.50;;
2211;SDS011;48849;48.758;9.158;2023-11-22T03:07:54;5.07;;;4.55;;
2211;SDS011;48849;48.758;9.158;2023-11-22T03:10:22;5.63;;;5.13;;
2211;SDS011;48849;48.758;9.158;2023-11-22T03:12:48;4.43;;;4.05;;
2211;SDS011;48849;48.758;9.158;2023-11-22T03:15:16;5.57;;;4.50;;
2211;SDS011;48849;48.758;9.158;2023-11-22T03:17:43;5.00;;;4.50;;
2211;SDS011;48849;48.758;9.158;2023-11-22T03:20:10;5.07;;;4.60;;
2211;SDS011;48849;48.758;9.158;2023-11-22T03:22:37;5.72;;;4.55;;
2211;SDS011;48849;48.758;9.158;2023-11-22T03:25:04;4.78;;;4.38;;
2211;SDS011;48849;48.758;9.158;2023-11-22T03:27:31;5.13;;;4.55;;
2211;SDS011;48849;48.758;9.158;2023-11-22T03:29:59;4.80;;;4.40;;
2211;SDS011;48849;48.758;9.158;2023-11-22T03:32:27;4.30;;;3.90;;
2211;SDS011;48849;48.758;9.158;2023-11-22T03:34:54;5.00;;;4.40;;
2211;SDS011;48849;48.758;9.158;2023-11-22T03:37:22;4.78;;;4.32;;
2211;SDS011;48849;48.758;9.158;2023-11-22T03:39:49;4.35;;;3.95;;
2211;SDS011;48849;48.758;9.158;2023-11-22T03:42:16;4.78;;;4.32;;
2211;SDS011;48849;48.758;9.158;2023-11-22T03:44:43;4.80;;;4.40;;
2211;SDS011;48849;48.758;9.158;2023-11-22T03:47:09;4.53;;;4.05;;
2211;SDS011;48849;48.758;9.158;2023-11-22T03:49:39;5.18;;;4.68;;
2211;SDS011;48849;48.758;9.158;2023-11-22T03:52:06;5.20;;;4.47;;
2211;SDS011;48849;48.758;9.158;2023-11-22T03:54:33;4.85;;;4.28;;
2211;SDS011;48849;48.758;9.158;2023-11-22T03:57:00;6.05;;;4.93;;
2211;SDS011;48849;48.758;9.158;2023-11-22T03:59:30;5.60;;;4.25;;
2211;SDS011;48849;48.758;9.158;2023-11-22T04:01:57;4.78;;;4.22;;
2211;SDS011;48849;48.758;9.158;2023-11-22T04:04:24;4.35;;;3.95;;
2211;SDS011;48849;48.758;9.158;2023-11-22T04:06:52;4.60;;;4.20;;
2211;SDS011;48849;48.758;9.158;2023-11-22T04:09:19;5.05;;;4.55;;
2211;SDS011;48849;48.758;9.158;2023-11-22T04:11:46;9.40;;;4.88;;
2211;SDS011;48849;48.758;9.158;2023-11-22T04:14:12;6.05;;;4.60;;
2211;SDS011;48849;48.758;9.158;2023-11-22T04:16:39;5.95;;;5.43;;
2211;SDS011;48849;48.758;9.158;2023-11-22T04:19:06;5.43;;;4.93;;
2211;SDS011;48849;48.758;9.158;2023-11-22T04:21:33;5.63;;;5.13;;
2211;SDS011;48849;48.758;9.158;2023-11-22T04:24:01;5.60;;;5.10;;
2211;SDS011;48849;48.758;9.158;2023-11-22T04:26:28;5.50;;;5.00;;
2211;SDS011;48849;48.758;9.158;2023-11-22T04:28:55;5.50;;;5.10;;
2211;SDS011;48849;48.758;9.158;2023-11-22T04:31:23;6.20;;;5.00;;
2211;SDS011;48849;48.758;9.158;2023-11-22T04:33:50;5.93;;;4.90;;
2211;SDS011;48849;48.758;9.158;2023-11-22T04:36:17;5.30;;;4.55;;
2211;SDS011;48849;48.758;9.158;2023-11-22T04:38:44;5.25;;;4.75;;
2211;SDS011;48849;48.758;9.158;2023-11-22T04:41:12;5.78;;;5.18;;
2211;SDS011;48849;48.758;9.158;2023-11-22T04:43:39;7.00;;;4.68;;
2211;SDS011;48849;48.758;9.158;2023-11-22T04:46:06;5.03;;;4.57;;
2211;SDS011;48849;48.758;9.158;2023-11-22T04:48:33;5.75;;;5.20;;
2211;SDS011;48849;48.758;9.158;2023-11-22T04:51:02;5.15;;;4.70;;
2211;SDS011;48849;48.758;9.158;2023-11-22T04:53:28;5.55;;;5.05;;
2211;SDS011;48849;48.758;9.158;2023-11-22T04:55:55;5.50;;;5.00;;
2211;SDS011;48849;48.758;9.158;2023-11-22T04:58:23;4.97;;;4.45;;
2211;SDS011;48849;48.758;9.158;2023-11-22T05:00:50;4.50;;;4.07;;
2211;SDS011;48849;48.758;9.158;2023-11-22T05:03:17;5.40;;;4.90;;
2211;SDS011;48849;48.758;9.158;2023-11-22T05:05:44;5.55;;;4.82;;
2211;SDS011;48849;48.758;9.158;2023-11-22T05:08:11;5.38;;;4.75;;
2211;SDS011;48849;48.758;9.158;2023-11-22T05:10:37;5.05;;;4.65;;
2211;SDS011;48849;48.758;9.158;2023-11-22T05:13:05;5.10;;;4.60;;
2211;SDS011;48849;48.758;9.158;2023-11-22T05:15:33;5.13;;;4.63;;
2211;SDS011;48849;48.758;9.158;2023-11-22T05:18:00;5.35;;;4.80;;
2211;SDS011;48849;48.758;9.158;2023-11-22T05:20:27;11.43;;;6.43;;
2211;SDS011;48849;48.758;9.158;2023-11-22T05:22:53;5.85;;;5.25;;
2211;SDS011;48849;48.758;9.158;2023-11-22T05:25:20;10.05;;;7.15;;
2211;SDS011;48849;48.758;9.158;2023-11-22T05:27:47;6.70;;;5.60;;
2211;SDS011;48849;48.758;9.158;2023-11-22T05:30:15;6.55;;;5.47;;
2211;SDS011;48849;48.758;9.158;2023-11-22T05:32:44;4.88;;;4.43;;
2211;SDS011;48849;48.758;9.158;2023-11-22T05:35:10;4.30;;;3.97;;
2211;SDS011;48849;48.758;9.158;2023-11-22T05:37:37;5.70;;;4.40;;
2211;SDS011;48849;48.758;9.158;2023-11-22T05:40:04;5.38;;;4.28;;
2211;SDS011;48849;48.758;9.158;2023-11-22T05:42:34;5.10;;;4.60;;
2211;SDS011;48849;48.758;9.158;2023-11-22T05:45:02;4.95;;;4.32;;
2211;SDS011;48849;48.758;9.158;2023-11-22T05:47:30;4.38;;;3.97;;
2211;SDS011;48849;48.758;9.158;2023-11-22T05:49:59;4.40;;;4.00;;
2211;SDS011;48849;48.758;9.158;2023-11-22T05:52:25;4.63;;;4.18;;
2211;SDS011;48849;48.758;9.158;2023-11-22T05:54:52;4.75;;;4.35;;
2211;SDS011;48849;48.758;9.158;2023-11-22T05:57:19;4.93;;;4.43;;
2211;SDS011;48849;48.758;9.158;2023-11-22T05:59:46;4.95;;;4.45;;
2211;SDS011;48849;48.758;9.158;2023-11-22T06:02:12;5.65;;;4.03;;
2211;SDS011;48849;48.758;9.158;2023-11-22T06:04:39;4.32;;;3.92;;
2211;SDS011;48849;48.758;9.158;2023-11-22T06:07:08;5.45;;;4.95;;
2211;SDS011;48849;48.758;9.158;2023-11-22T06:09:35;5.18;;;4.35;;
2211;SDS011;48849;48.758;9.158;2023-11-22T06:12:02;6.90;;;4.28;;
2211;SDS011;48849;48.758;9.158;2023-11-22T06:14:29;5.78;;;4.68;;
2211;SDS011;48849;48.758;9.158;2023-11-22T06:16:56;4.82;;;4.32;;
2211;SDS011;48849;48.758;9.158;2023-11-22T06:19:23;4.78;;;4.25;;
2211;SDS011;48849;48.758;9.158;2023-11-22T06:21:49;4.22;;;3.85;;
2211;SDS011;48849;48.758;9.158;2023-11-22T06:24:17;4.35;;;3.95;;
2211;SDS011;48849;48.758;9.158;2023-11-22T06:26:45;4.50;;;4.10;;
2211;SDS011;48849;48.758;9.158;2023-11-22T06:29:12;4.45;;;4.05;;
2211;SDS011;48849;48.758;9.158;2023-11-22T06:31:39;6.40;;;4.55;;
2211;SDS011;48849;48.758;9.158;2023-11-22T06:34:06;4.30;;;3.90;;
2211;SDS011;48849;48.758;9.158;2023-11-22T06:36:33;4.47;;;4.13;;
2211;SDS011;48849;48.758;9.158;2023-11-22T06:38:59;4.70;;;4.30;;
2211;SDS011;48849;48.758;9.158;2023-11-22T06:41:28;4.60;;;4.20;;
2211;SDS011;48849;48.758;9.158;2023-11-22T06:43:54;4.38;;;4.00;;
2211;SDS011;48849;48.758;9.158;2023-11-22T06:46:21;5.00;;;4.50;;
2211;SDS011;48849;48.758;9.158;2023-11-22T06:48:48;4.53;;;4.13;;
2211;SDS011;48849;48.758;9.158;2023-11-22T06:51:15;5.03;;;4.53;;
2211;SDS011;48849;48.758;9.158;2023-11-22T06:53:43;4.45;;;4.05;;
2211;SDS011;48849;48.758;9.158;2023-11-22T06:56:10;6.82;;;4.40;;
2211;SDS011;48849;48.758;9.158;2023-11-22T06:58:38;6.22;;;4.82;;
2211;SDS011;48849;48.758;9.158;2023-11-22T07:01:05;4.70;;;4.30;;
2211;SDS011;48849;48.758;9.158;2023-11-22T07:03:35;5.65;;;5.15;;
2211;SDS011;48849;48.758;9.158;2023-11-22T07:06:02;4.70;;;4.30;;
2211;SDS011;48849;48.758;9.158;2023-11-22T07:08:29;5.30;;;3.80;;
2211;SDS011;48849;48.758;9.158;2023-11-22T07:10:56;4.45;;;4.15;;
2211;SDS011;48849;48.758;9.158;2023-11-22T07:13:23;5.18;;;4.45;;
2211;SDS011;48849;48.758;9.158;2023-11-22T07:15:53;5.45;;;3.88;;
2211;SDS011;48849;48.758;9.158;2023-11-22T07:18:20;3.88;;;3.58;;
2211;SDS011;48849;48.758;9.158;2023-11-22T07:20:49;4.03;;;3.63;;
2211;SDS011;48849;48.758;9.158;2023-11-22T07:23:18;3.88;;;3.58;;
2211;SDS011;48849;48.758;9.158;2023-11-22T07:25:46;5.00;;;3.92;;
2211;SDS011;48849;48.758;9.158;2023-11-22T07:28:13;5.50;;;3.65;;
2211;SDS011;48849;48.758;9.158;2023-11-22T07:30:39;4.45;;;3.95;;
2211;SDS011;48849;48.758;9.158;2023-11-22T07:33:08;7.25;;;4.70;;
2211;SDS011;48849;48.758;9.158;2023-11-22T07:35:36;5.72;;;3.65;;
2211;SDS011;48849;48.758;9.158;2023-11-22T07:38:04;3.80;;;3.40;;
2211;SDS011;48849;48.758;9.158;2023-11-22T07:40:35;4.45;;;4.00;;
2211;SDS011;48849;48.758;9.158;2023-11-22T07:43:02;6.40;;;3.55;;
2211;SDS011;48849;48.758;9.158;2023-11-22T07:45:30;4.10;;;2.88;;
2211;SDS011;48849;48.758;9.158;2023-11-22T07:47:56;3.95;;;3.65;;
2211;SDS011;48849;48.758;9.158;2023-11-22T07:50:25;4.35;;;3.50;;
2211;SDS011;48849;48.758;9.158;2023-11-22T07:52:52;3.58;;;3.10;;
2211;SDS011;48849;48.758;9.158;2023-11-22T07:55:19;3.70;;;3.15;;
2211;SDS011;48849;48.758;9.158;2023-11-22T07:57:47;4.93;;;3.80;;
2211;SDS011;48849;48.758;9.158;2023-11-22T08:00:15;2.88;;;2.63;;
2211;SDS011;48849;48.758;9.158;2023-11-22T08:02:44;3.47;;;3.17;;
2211;SDS011;48849;48.758;9.158;2023-11-22T08:05:11;4.57;;;3.55;;
2211;SDS011;48849;48.758;9.158;2023-11-22T08:07:41;4.78;;;3.60;;
2211;SDS011;48849;48.758;9.158;2023-11-22T08:10:11;4.80;;;3.03;;
2211;SDS011;48849;48.758;9.158;2023-11-22T08:12:44;5.50;;;3.70;;
2211;SDS011;48849;48.758;9.158;2023-11-22T08:15:11;5.47;;;3.70;;
2211;SDS011;48849;48.758;9.158;2023-11-22T08:17:40;3.30;;;3.00;;
2211;SDS011;48849;48.758;9.158;2023-11-22T08:20:08;4.28;;;3.30;;
2211;SDS011;48849;48.758;9.158;2023-11-22T08:22:38;3.67;;;3.00;;
2211;SDS011;48849;48.758;9.158;2023-11-22T08:25:08;4.10;;;3.70;;
2211;SDS011;48849;48.758;9.158;2023-11-22T08:27:37;4.07;;;3.70;;
2211;SDS011;48849;48.758;9.158;2023-11-22T08:30:06;4.50;;;3.40;;
2211;SDS011;48849;48.758;9.158;2023-11-22T08:32:38;4.10;;;3.70;;
2211;SDS011;48849;48.758;9.158;2023-11-22T08:35:06;6.70;;;3.30;;
2211;SDS011;48849;48.758;9.158;2023-11-22T08:37:33;4.05;;;3.65;;
2211;SDS011;48849;48.758;9.158;2023-11-22T08:40:03;5.43;;;3.80;;
2211;SDS011;48849;48.758;9.158;2023-11-22T08:42:32;5.18;;;3.70;;
2211;SDS011;48849;48.758;9.158;2023-11-22T08:45:00;3.78;;;3.47;;
2211;SDS011;48849;48.758;9.158;2023-11-22T08:47:27;7.00;;;3.95;;
2211;SDS011;48849;48.758;9.158;2023-11-22T08:49:53;4.50;;;3.90;;
2211;SDS011;48849;48.758;9.158;2023-11-22T08:52:21;4.15;;;3.75;;
2211;SDS011;48849;48.758;9.158;2023-11-22T08:54:48;3.58;;;3.28;;
2211;SDS011;48849;48.758;9.158;2023-11-22T08:57:15;3.67;;;3.38;;
2211;SDS011;48849;48.758;9.158;2023-11-22T08:59:43;4.05;;;3.65;;
2211;SDS011;48849;48.758;9.158;2023-11-22T09:02:10;3.58;;;3.28;;
2211;SDS011;48849;48.758;9.158;2023-11-22T09:04:38;4.25;;;3.85;;
2211;SDS011;48849;48.758;9.158;2023-11-22T09:07:06;3.70;;;3.40;;
2211;SDS011;48849;48.758;9.158;2023-11-22T09:09:35;4.10;;;3.70;;
2211;SDS011;48849;48.758;9.158;2023-11-22T09:12:02;5.40;;;3.63;;
2211;SDS011;48849;48.758;9.158;2023-11-22T09:14:29;3.70;;;3.40;;
2211;SDS011;48849;48.758;9.158;2023-11-22T09:16:57;4.03;;;3.72;;
2211;SDS011;48849;48.758;9.158;2023-11-22T09:19:26;4.13;;;3.75;;
2211;SDS011;48849;48.758;9.158;2023-11-22T09:21:53;4.40;;;4.00;;
2211;SDS011;48849;48.758;9.158;2023-11-22T09:24:20;5.80;;;5.18;;
2211;SDS011;48849;48.758;9.158;2023-11-22T09:26:47;5.45;;;4.20;;
2211;SDS011;48849;48.758;9.158;2023-11-22T09:29:14;6.25;;;4.28;;
2211;SDS011;48849;48.758;9.158;2023-11-22T09:31:40;5.28;;;4.40;;
2211;SDS011;48849;48.758;9.158;2023-11-22T09:34:08;4.40;;;4.00;;
2211;SDS011;48849;48.758;9.158;2023-11-22T09:36:36;4.60;;;4.20;;
2211;SDS011;48849;48.758;9.158;2023-11-22T09:39:02;6.00;;;4.85;;
2211;SDS011;48849;48.758;9.158;2023-11-22T09:41:33;5.63;;;5.05;;
2211;SDS011;48849;48.758;9.158;2023-11-22T09:44:00;5.00;;;4.50;;
2211;SDS011;48849;48.758;9.158;2023-11-22T09:46:28;4.65;;;4.25;;
2211;SDS011;48849;48.758;9.158;2023-11-22T09:48:58;4.97;;;4.47;;
2211;SDS011;48849;48.758;9.158;2023-11-22T09:51:29;6.07;;;5.15;;
2211;SDS011;48849;48.758;9.158;2023-11-22T09:53:59;4.80;;;4.30;;
2211;SDS011;48849;48.758;9.158;2023-11-22T09:56:34;4.90;;;4.40;;
2211;SDS011;48849;48.758;9.158;2023-11-22T09:59:02;4.82;;;4.07;;
2211;SDS011;48849;48.758;9.158;2023-11-22T10:01:30;4.72;;;4.30;;
2211;SDS011;48849;48.758;9.158;2023-11-22T10:03:58;5.53;;;4.78;;
2211;SDS011;48849;48.758;9.158;2023-11-22T10:06:25;6.55;;;4.80;;
2211;SDS011;48849;48.758;9.158;2023-11-22T10:08:57;5.53;;;4.82;;
2211;SDS011;48849;48.758;9.158;2023-11-22T10:11:25;6.85;;;4.50;;
2211;SDS011;48849;48.758;9.158;2023-11-22T10:13:53;4.95;;;4.40;;
2211;SDS011;48849;48.758;9.158;2023-11-22T10:16:22;6.90;;;4.90;;
2211;SDS011;48849;48.758;9.158;2023-11-22T10:18:49;5.30;;;4.80;;
2211;SDS011;48849;48.758;9.158;2023-11-22T10:21:19;5.35;;;4.82;;
2211;SDS011;48849;48.758;9.158;2023-11-22T10:23:47;6.57;;;5.30;;
2211;SDS011;48849;48.758;9.158;2023-11-22T10:26:18;8.05;;;4.95;;
2211;SDS011;48849;48.758;9.158;2023-11-22T10:28:44;5.90;;;5.30;;
2211;SDS011;48849;48.758;9.158;2023-11-22T10:31:11;6.07;;;5.47;;
2211;SDS011;48849;48.758;9.158;2023-11-22T10:33:39;7.32;;;5.13;;
2211;SDS011;48849;48.758;9.158;2023-11-22T10:36:07;5.28;;;4.78;;
2211;SDS011;48849;48.758;9.158;2023-11-22T10:38:34;5.50;;;5.00;;
2211;SDS011;48849;48.758;9.158;2023-11-22T10:41:03;7.78;;;4.43;;
2211;SDS011;48849;48.758;9.158;2023-11-22T10:43:31;5.72;;;4.55;;
2211;SDS011;48849;48.758;9.158;2023-11-22T10:46:01;4.93;;;4.53;;
2211;SDS011;48849;48.758;9.158;2023-11-22T10:48:29;5.55;;;5.05;;
2211;SDS011;48849;48.758;9.158;2023-11-22T10:50:58;7.75;;;4.60;;
2211;SDS011;48849;48.758;9.158;2023-11-22T10:53:30;5.90;;;5.10;;
2211;SDS011;48849;48.758;9.158;2023-11-22T10:56:04;5.65;;;5.00;;
2211;SDS011;48849;48.758;9.158;2023-11-22T10:58:40;5.97;;;5.18;;
2211;SDS011;48849;48.758;9.158;2023-11-22T11:01:13;6.35;;;5.70;;
2211;SDS011;48849;48.758;9.158;2023-11-22T11:03:44;7.93;;;5.10;;
2211;SDS011;48849;48.758;9.158;2023-11-22T11:06:14;7.65;;;4.82;;
2211;SDS011;48849;48.758;9.158;2023-11-22T11:08:45;5.22;;;4.72;;
2211;SDS011;48849;48.758;9.158;2023-11-22T11:11:12;5.43;;;4.72;;
2211;SDS011;48849;48.758;9.158;2023-11-22T11:13:41;8.73;;;5.40;;
2211;SDS011;48849;48.758;9.158;2023-11-22T11:16:09;5.50;;;5.00;;
2211;SDS011;48849;48.758;9.158;2023-11-22T11:18:36;5.30;;;4.80;;
2211;SDS011;48849;48.758;9.158;2023-11-22T11:21:07;6.00;;;5.03;;
2211;SDS011;48849;48.758;9.158;2023-11-22T11:23:36;8.48;;;5.70;;
2211;SDS011;48849;48.758;9.158;2023-11-22T11:26:08;5.90;;;5.30;;
2211;SDS011;48849;48.758;9.158;2023-11-22T11:28:43;6.20;;;5.47;;
2211;SDS011;48849;48.758;9.158;2023-11-22T11:31:12;6.53;;;5.70;;
2211;SDS011;48849;48.758;9.158;2023-11-22T11:33:53;6.25;;;5.55;;
2211;SDS011;48849;48.758;9.158;2023-11-22T11:36:21;5.80;;;5.20;;
2211;SDS011;48849;48.758;9.158;2023-11-22T11:38:50;5.57;;;5.07;;
2211;SDS011;48849;48.758;9.158;2023-11-22T11:41:18;8.55;;;4.95;;
2211;SDS011;48849;48.758;9.158;2023-11-22T11:43:47;8.50;;;5.70;;
2211;SDS011;48849;48.758;9.158;2023-11-22T11:46:15;6.13;;;5.53;;
2211;SDS011;48849;48.758;9.158;2023-11-22T11:48:42;7.47;;;6.40;;
2211;SDS011;48849;48.758;9.158;2023-11-22T11:51:10;6.72;;;5.47;;
2211;SDS011;48849;48.758;9.158;2023-11-22T11:53:39;5.70;;;5.20;;
2211;SDS011;48849;48.758;9.158;2023-11-22T11:56:07;5.85;;;5.35;;
2211;SDS011;48849;48.758;9.158;2023-11-22T11:58:34;6.07;;;5.47;;
2211;SDS011;48849;48.758;9.158;2023-11-22T12:01:02;6.05;;;5.45;;
2211;SDS011;48849;48.758;9.158;2023-11-22T12:03:29;7.07;;;5.70;;
2211;SDS011;48849;48.758;9.158;2023-11-22T12:05:56;7.80;;;6.22;;
2211;SDS011;48849;48.758;9.158;2023-11-22T12:08:23;5.82;;;5.13;;
2211;SDS011;48849;48.758;9.158;2023-11-22T12:10:50;6.57;;;5.72;;
2211;SDS011;48849;48.758;9.158;2023-11-22T12:13:18;6.28;;;5.68;;
2211;SDS011;48849;48.758;9.158;2023-11-22T12:15:46;6.85;;;5.88;;
2211;SDS011;48849;48.758;9.158;2023-11-22T12:18:14;6.55;;;5.85;;
2211;SDS011;48849;48.758;9.158;2023-11-22T12:20:42;6.00;;;5.38;;
2211;SDS011;48849;48.758;9.158;2023-11-22T12:23:19;6.65;;;5.43;;
2211;SDS011;48849;48.758;9.158;2023-11-22T12:25:46;8.75;;;5.90;;
2211;SDS011;48849;48.758;9.158;2023-11-22T12:28:15;5.63;;;5.03;;
2211;SDS011;48849;48.758;9.158;2023-11-22T12:30:43;6.10;;;5.50;;
2211;SDS011;48849;48.758;9.158;2023-11-22T12:33:11;6.50;;;5.90;;
2211;SDS011;48849;48.758;9.158;2023-11-22T12:35:42;6.85;;;6.00;;
2211;SDS011;48849;48.758;9.158;2023-11-22T12:38:09;6.40;;;5.80;;
2211;SDS011;48849;48.758;9.158;2023-11-22T12:40:37;6.75;;;6.15;;
2211;SDS011;48849;48.758;9.158;2023-11-22T12:43:03;7.30;;;6.55;;
2211;SDS011;48849;48.758;9.158;2023-11-22T12:45:31;6.90;;;5.80;;
2211;SDS011;48849;48.758;9.158;2023-11-22T12:48:10;6.30;;;5.40;;
2211;SDS011;48849;48.758;9.158;2023-11-22T12:50:47;6.32;;;5.70;;
2211;SDS011;48849;48.758;9.158;2023-11-22T12:53:14;10.45;;;5.28;;
2211;SDS011;48849;48.758;9.158;2023-11-22T12:55:42;6.10;;;5.50;;
2211;SDS011;48849;48.758;9.158;2023-11-22T12:58:10;6.47;;;5.78;;
2211;SDS011;48849;48.758;9.158;2023-11-22T13:00:37;7.03;;;5.95;;
2211;SDS011;48849;48.758;9.158;2023-11-22T13:03:05;5.93;;;5.32;;
2211;SDS011;48849;48.758;9.158;2023-11-22T13:05:32;7.72;;;5.82;;
2211;SDS011;48849;48.758;9.158;2023-11-22T13:08:00;7.40;;;6.07;;
2211;SDS011;48849;48.758;9.158;2023-11-22T13:10:28;7.35;;;5.82;;
2211;SDS011;48849;48.758;9.158;2023-11-22T13:12:56;7.30;;;5.55;;
2211;SDS011;48849;48.758;9.158;2023-11-22T13:15:23;6.15;;;5.60;;
2211;SDS011;48849;48.758;9.158;2023-11-22T13:17:51;5.95;;;5.35;;
2211;SDS011;48849;48.758;9.158;2023-11-22T13:20:21;6.60;;;5.68;;
2211;SDS011;48849;48.758;9.158;2023-11-22T13:22:51;7.00;;;6.15;;
2211;SDS011;48849;48.758;9.158;2023-11-22T13:25:19;7.93;;;5.70;;
2211;SDS011;48849;48.758;9.158;2023-11-22T13:27:46;6.15;;;5.55;;
2211;SDS011;48849;48.758;9.158;2023-11-22T13:30:14;10.95;;;6.15;;
2211;SDS011;48849;48.758;9.158;2023-11-22T13:32:42;6.93;;;6.25;;
2211;SDS011;48849;48.758;9.158;2023-11-22T13:35:09;6.13;;;5.50;;
2211;SDS011;48849;48.758;9.158;2023-11-22T13:37:40;7.03;;;6.10;;
2211;SDS011;48849;48.758;9.158;2023-11-22T13:40:08;7.45;;;6.53;;
2211;SDS011;48849;48.758;9.158;2023-11-22T13:42:40;8.48;;;6.20;;
2211;SDS011;48849;48.758;9.158;2023-11-22T13:45:08;8.75;;;6.90;;
2211;SDS011;48849;48.758;9.158;2023-11-22T13:47:36;8.05;;;6.60;;
2211;SDS011;48849;48.758;9.158;2023-11-22T13:50:03;8.23;;;6.25;;
2211;SDS011;48849;48.758;9.158;2023-11-22T13:52:31;10.50;;;7.63;;
2211;SDS011;48849;48.758;9.158;2023-11-22T13:54:58;9.38;;;6.90;;
2211;SDS011;48849;48.758;9.158;2023-11-22T13:57:26;10.05;;;6.65;;
2211;SDS011;48849;48.758;9.158;2023-11-22T13:59:54;7.45;;;6.65;;
2211;SDS011;48849;48.758;9.158;2023-11-22T14:02:20;9.07;;;7.90;;
2211;SDS011;48849;48.758;9.158;2023-11-22T14:04:48;10.80;;;9.63;;
2211;SDS011;48849;48.758;9.158;2023-11-22T14:07:14;17.05;;;12.85;;
2211;SDS011;48849;48.758;9.158;2023-11-22T14:09:42;8.60;;;6.72;;
2211;SDS011;48849;48.758;9.158;2023-11-22T14:12:11;6.60;;;6.00;;
2211;SDS011;48849;48.758;9.158;2023-11-22T14:14:38;6.47;;;5.88;;
2211;SDS011;48849;48.758;9.158;2023-11-22T14:17:06;12.85;;;9.65;;
2211;SDS011;48849;48.758;9.158;2023-11-22T14:19:33;9.43;;;8.07;;
2211;SDS011;48849;48.758;9.158;2023-11-22T14:22:00;7.95;;;7.00;;
2211;SDS011;48849;48.758;9.158;2023-11-22T14:24:27;8.23;;;7.40;;
2211;SDS011;48849;48.758;9.158;2023-11-22T14:26:55;8.07;;;7.07;;
2211;SDS011;48849;48.758;9.158;2023-11-22T14:29:25;10.50;;;8.90;;
2211;SDS011;48849;48.758;9.158;2023-11-22T14:31:52;9.73;;;8.73;;
2211;SDS011;48849;48.758;9.158;2023-11-22T14:34:20;10.30;;;7.93;;
2211;SDS011;48849;48.758;9.158;2023-11-22T14:36:47;9.07;;;8.10;;
2211;SDS011;48849;48.758;9.158;2023-11-22T14:39:14;7.18;;;6.43;;
2211;SDS011;48849;48.758;9.158;2023-11-22T14:41:41;6.50;;;5.82;;
2211;SDS011;48849;48.758;9.158;2023-11-22T14:44:10;6.75;;;6.05;;
2211;SDS011;48849;48.758;9.158;2023-11-22T14:46:37;7.30;;;6.50;;
2211;SDS011;48849;48.758;9.158;2023-11-22T14:49:03;9.02;;;8.18;;
2211;SDS011;48849;48.758;9.158;2023-11-22T14:51:32;10.60;;;9.35;;
2211;SDS011;48849;48.758;9.158;2023-11-22T14:53:59;8.73;;;7.25;;
2211;SDS011;48849;48.758;9.158;2023-11-22T14:56:26;10.10;;;7.57;;
2211;SDS011;48849;48.758;9.158;2023-11-22T14:58:54;8.70;;;7.18;;
2211;SDS011;48849;48.758;9.158;2023-11-22T15:01:20;14.98;;;10.25;;
2211;SDS011;48849;48.758;9.158;2023-11-22T15:03:48;10.27;;;8.57;;